sensor_id;sensor_type;location;lat;lon;timestamp;temperature;humidity
3790;DHT22;1910;49.042;9.028;2022-09-09T00:00:18;14.70;99.90
3790;DHT22;1910;49.042;9.028;2022-09-09T00:05:46;15.00;99.90
3790;DHT22;1910;49.042;9.028;2022-09-09T00:08:35;15.10;99.90
3790;DHT22;1910;49.042;9.028;2022-09-09T00:11:03;15.20;99.90
3790;DHT22;1910;49.042;9.028;2022-09-09T00:13:52;15.30;99.90
3790;DHT22;1910;49.042;9.028;2022-09-09T00:16:27;15.50;99.90
3790;DHT22;1910;49.042;9.028;2022-09-09T00:19:35;15.50;99.90
3790;DHT22;1910;49.042;9.028;2022-09-09T00:22:18;15.30;99.90
3790;DHT22;1910;49.042;9.028;2022-09-09T00:24:53;15.10;99.90
3790;DHT22;1910;49.042;9.028;2022-09-09T00:27:40;15.00;99.90
3790;DHT22;1910;49.042;9.028;2022-09-09T00:30:24;14.90;99.90
3790;DHT22;1910;49.042;9.028;2022-09-09T00:33:00;14.80;99.90
3790;DHT22;1910;49.042;9.028;2022-09-09T00:35:32;14.90;99.90
3790;DHT22;1910;49.042;9.028;2022-09-09T00:38:36;14.90;99.90
3790;DHT22;1910;49.042;9.028;2022-09-09T00:41:14;14.80;99.90
3790;DHT22;1910;49.042;9.028;2022-09-09T00:43:57;15.00;99.90
3790;DHT22;1910;49.042;9.028;2022-09-09T00:57:23;15.80;99.90
3790;DHT22;1910;49.042;9.028;2022-09-09T01:06:15;15.40;99.90
3790;DHT22;1910;49.042;9.028;2022-09-09T01:09:21;15.30;99.90
3790;DHT22;1910;49.042;9.028;2022-09-09T01:28:19;15.80;99.90
3790;DHT22;1910;49.042;9.028;2022-09-09T01:30:47;15.80;99.90
3790;DHT22;1910;49.042;9.028;2022-09-09T01:33:16;15.60;99.90
3790;DHT22;1910;49.042;9.028;2022-09-09T01:35:55;16.30;99.90
3790;DHT22;1910;49.042;9.028;2022-09-09T01:38:23;15.10;99.90
3790;DHT22;1910;49.042;9.028;2022-09-09T01:40:51;14.90;99.90
3790;DHT22;1910;49.042;9.028;2022-09-09T01:43:20;14.90;99.90
3790;DHT22;1910;49.042;9.028;2022-09-09T01:45:48;14.90;99.90
3790;DHT22;1910;49.042;9.028;2022-09-09T01:48:15;15.40;99.90
3790;DHT22;1910;49.042;9.028;2022-09-09T01:50:41;15.90;99.90
3790;DHT22;1910;49.042;9.028;2022-09-09T01:53:07;15.30;99.90
3790;DHT22;1910;49.042;9.028;2022-09-09T01:55:40;15.40;99.90
3790;DHT22;1910;49.042;9.028;2022-09-09T01:58:24;16.30;99.90
3790;DHT22;1910;49.042;9.028;2022-09-09T02:03:33;16.00;99.90
3790;DHT22;1910;49.042;9.028;2022-09-09T02:08:50;16.20;99.90
3790;DHT22;1910;49.042;9.028;2022-09-09T02:11:18;16.30;99.90
3790;DHT22;1910;49.042;9.028;2022-09-09T02:13:46;16.30;99.90
3790;DHT22;1910;49.042;9.028;2022-09-09T02:16:26;17.80;99.90
3790;DHT22;1910;49.042;9.028;2022-09-09T02:19:01;16.20;99.90
3790;DHT22;1910;49.042;9.028;2022-09-09T02:21:29;16.10;99.90
3790;DHT22;1910;49.042;9.028;2022-09-09T02:23:58;16.10;99.90
3790;DHT22;1910;49.042;9.028;2022-09-09T02:26:25;16.00;99.90
3790;DHT22;1910;49.042;9.028;2022-09-09T02:28:54;15.80;99.90
3790;DHT22;1910;49.042;9.028;2022-09-09T02:31:23;16.20;99.90
3790;DHT22;1910;49.042;9.028;2022-09-09T02:33:56;15.70;99.90
3790;DHT22;1910;49.042;9.028;2022-09-09T02:36:24;16.90;99.90
3790;DHT22;1910;49.042;9.028;2022-09-09T02:38:51;15.80;99.90
3790;DHT22;1910;49.042;9.028;2022-09-09T02:41:32;15.90;99.90
3790;DHT22;1910;49.042;9.028;2022-09-09T02:43:59;16.00;99.90
3790;DHT22;1910;49.042;9.028;2022-09-09T02:52:13;16.00;99.90
3790;DHT22;1910;49.042;9.028;2022-09-09T02:54:42;15.90;99.90
3790;DHT22;1910;49.042;9.028;2022-09-09T02:57:19;15.90;99.90
3790;DHT22;1910;49.042;9.028;2022-09-09T02:59:46;15.90;99.90
3790;DHT22;1910;49.042;9.028;2022-09-09T03:02:12;15.80;99.90
3790;DHT22;1910;49.042;9.028;2022-09-09T03:04:39;15.80;99.90
3790;DHT22;1910;49.042;9.028;2022-09-09T03:07:06;15.70;99.90
3790;DHT22;1910;49.042;9.028;2022-09-09T03:12:00;15.70;99.90
3790;DHT22;1910;49.042;9.028;2022-09-09T03:16:53;15.50;99.90
3790;DHT22;1910;49.042;9.028;2022-09-09T03:19:19;15.40;99.90
3790;DHT22;1910;49.042;9.028;2022-09-09T03:21:46;15.30;99.90
3790;DHT22;1910;49.042;9.028;2022-09-09T03:24:12;15.30;99.90
3790;DHT22;1910;49.042;9.028;2022-09-09T03:26:37;15.30;99.90
3790;DHT22;1910;49.042;9.028;2022-09-09T03:29:04;15.30;99.90
3790;DHT22;1910;49.042;9.028;2022-09-09T03:31:34;15.50;99.90
3790;DHT22;1910;49.042;9.028;2022-09-09T03:34:01;15.50;99.90
3790;DHT22;1910;49.042;9.028;2022-09-09T03:43:47;15.70;99.90
3790;DHT22;1910;49.042;9.028;2022-09-09T03:46:12;15.70;99.90
3790;DHT22;1910;49.042;9.028;2022-09-09T03:48:38;15.80;99.90
3790;DHT22;1910;49.042;9.028;2022-09-09T03:51:03;15.70;99.90
3790;DHT22;1910;49.042;9.028;2022-09-09T03:53:29;15.70;99.90
3790;DHT22;1910;49.042;9.028;2022-09-09T03:55:56;15.50;99.90
3790;DHT22;1910;49.042;9.028;2022-09-09T03:58:25;15.60;99.90
3790;DHT22;1910;49.042;9.028;2022-09-09T04:03:30;15.60;99.90
3790;DHT22;1910;49.042;9.028;2022-09-09T04:05:57;15.60;99.90
3790;DHT22;1910;49.042;9.028;2022-09-09T04:08:23;15.50;99.90
3790;DHT22;1910;49.042;9.028;2022-09-09T04:10:53;15.50;99.90
3790;DHT22;1910;49.042;9.028;2022-09-09T04:13:19;15.60;99.90
3790;DHT22;1910;49.042;9.028;2022-09-09T04:15:53;15.50;99.90
3790;DHT22;1910;49.042;9.028;2022-09-09T04:18:19;15.50;99.90
3790;DHT22;1910;49.042;9.028;2022-09-09T04:20:48;15.50;99.90
3790;DHT22;1910;49.042;9.028;2022-09-09T04:23:16;15.50;99.90
3790;DHT22;1910;49.042;9.028;2022-09-09T04:25:50;15.50;99.90
3790;DHT22;1910;49.042;9.028;2022-09-09T04:28:17;15.60;99.90
3790;DHT22;1910;49.042;9.028;2022-09-09T04:30:43;15.60;99.90
3790;DHT22;1910;49.042;9.028;2022-09-09T04:33:10;15.70;99.90
3790;DHT22;1910;49.042;9.028;2022-09-09T04:38:02;15.70;99.90
3790;DHT22;1910;49.042;9.028;2022-09-09T04:40:29;15.60;99.90
3790;DHT22;1910;49.042;9.028;2022-09-09T04:45:21;15.60;99.90
3790;DHT22;1910;49.042;9.028;2022-09-09T04:50:12;15.70;99.90
3790;DHT22;1910;49.042;9.028;2022-09-09T04:52:38;15.80;99.90
3790;DHT22;1910;49.042;9.028;2022-09-09T04:55:05;15.70;99.90
3790;DHT22;1910;49.042;9.028;2022-09-09T04:59:58;15.80;99.90
3790;DHT22;1910;49.042;9.028;2022-09-09T05:09:43;15.70;99.90
3790;DHT22;1910;49.042;9.028;2022-09-09T05:14:34;15.60;99.90
3790;DHT22;1910;49.042;9.028;2022-09-09T05:21:55;15.40;99.90
3790;DHT22;1910;49.042;9.028;2022-09-09T05:39:03;16.00;99.90
3790;DHT22;1910;49.042;9.028;2022-09-09T05:46:26;16.50;99.90
3790;DHT22;1910;49.042;9.028;2022-09-09T05:48:52;16.90;99.90
3790;DHT22;1910;49.042;9.028;2022-09-09T05:51:21;16.90;99.90
3790;DHT22;1910;49.042;9.028;2022-09-09T05:53:47;16.60;99.90
3790;DHT22;1910;49.042;9.028;2022-09-09T05:56:21;16.60;99.90
3790;DHT22;1910;49.042;9.028;2022-09-09T05:58:51;16.60;99.90
3790;DHT22;1910;49.042;9.028;2022-09-09T06:01:24;16.70;99.90
3790;DHT22;1910;49.042;9.028;2022-09-09T06:03:51;16.70;99.90
3790;DHT22;1910;49.042;9.028;2022-09-09T06:06:20;16.70;99.90
3790;DHT22;1910;49.042;9.028;2022-09-09T06:08:46;16.70;99.90
3790;DHT22;1910;49.042;9.028;2022-09-09T06:11:15;16.80;99.90
3790;DHT22;1910;49.042;9.028;2022-09-09T06:13:40;16.80;99.90
3790;DHT22;1910;49.042;9.028;2022-09-09T06:16:11;17.00;99.90
3790;DHT22;1910;49.042;9.028;2022-09-09T06:18:37;17.00;99.90
3790;DHT22;1910;49.042;9.028;2022-09-09T06:21:05;17.10;99.90
3790;DHT22;1910;49.042;9.028;2022-09-09T06:23:32;17.10;99.90
3790;DHT22;1910;49.042;9.028;2022-09-09T06:26:14;17.20;99.90
3790;DHT22;1910;49.042;9.028;2022-09-09T06:28:40;17.60;99.90
3790;DHT22;1910;49.042;9.028;2022-09-09T06:31:09;17.90;99.90
3790;DHT22;1910;49.042;9.028;2022-09-09T06:33:37;19.40;99.90
3790;DHT22;1910;49.042;9.028;2022-09-09T06:36:07;18.10;99.90
3790;DHT22;1910;49.042;9.028;2022-09-09T06:38:35;17.90;99.90
3790;DHT22;1910;49.042;9.028;2022-09-09T06:41:00;18.00;99.90
3790;DHT22;1910;49.042;9.028;2022-09-09T06:43:27;18.00;99.90
3790;DHT22;1910;49.042;9.028;2022-09-09T06:46:08;17.90;99.90
3790;DHT22;1910;49.042;9.028;2022-09-09T06:48:34;17.70;99.90
3790;DHT22;1910;49.042;9.028;2022-09-09T06:53:35;17.90;99.90
3790;DHT22;1910;49.042;9.028;2022-09-09T06:56:22;18.10;99.90
3790;DHT22;1910;49.042;9.028;2022-09-09T06:58:49;18.90;99.90
3790;DHT22;1910;49.042;9.028;2022-09-09T07:01:23;19.50;99.90
3790;DHT22;1910;49.042;9.028;2022-09-09T07:03:51;19.30;99.90
3790;DHT22;1910;49.042;9.028;2022-09-09T07:06:20;19.20;99.90
3790;DHT22;1910;49.042;9.028;2022-09-09T07:08:56;19.30;99.90
3790;DHT22;1910;49.042;9.028;2022-09-09T07:11:25;19.50;99.90
3790;DHT22;1910;49.042;9.028;2022-09-09T07:13:52;19.70;99.90
3790;DHT22;1910;49.042;9.028;2022-09-09T07:16:20;19.80;99.90
3790;DHT22;1910;49.042;9.028;2022-09-09T07:18:46;20.00;99.90
3790;DHT22;1910;49.042;9.028;2022-09-09T07:21:14;20.50;99.90
3790;DHT22;1910;49.042;9.028;2022-09-09T07:23:40;20.90;99.90
3790;DHT22;1910;49.042;9.028;2022-09-09T07:26:15;21.00;99.90
3790;DHT22;1910;49.042;9.028;2022-09-09T07:28:41;20.50;99.90
3790;DHT22;1910;49.042;9.028;2022-09-09T07:31:08;20.40;99.90
3790;DHT22;1910;49.042;9.028;2022-09-09T07:36:14;20.20;99.90
3790;DHT22;1910;49.042;9.028;2022-09-09T07:38:44;20.20;99.90
3790;DHT22;1910;49.042;9.028;2022-09-09T07:41:13;20.10;99.90
3790;DHT22;1910;49.042;9.028;2022-09-09T07:43:40;20.20;99.90
3790;DHT22;1910;49.042;9.028;2022-09-09T07:46:06;20.50;99.90
3790;DHT22;1910;49.042;9.028;2022-09-09T07:48:32;20.80;99.90
3790;DHT22;1910;49.042;9.028;2022-09-09T07:51:07;21.00;99.90
3790;DHT22;1910;49.042;9.028;2022-09-09T07:56:06;24.30;99.90
3790;DHT22;1910;49.042;9.028;2022-09-09T07:58:32;26.20;99.90
3790;DHT22;1910;49.042;9.028;2022-09-09T08:00:58;28.40;99.90
3790;DHT22;1910;49.042;9.028;2022-09-09T08:10:42;28.10;97.00
3790;DHT22;1910;49.042;9.028;2022-09-09T08:13:08;26.90;94.40
3790;DHT22;1910;49.042;9.028;2022-09-09T08:25:19;26.60;92.60
3790;DHT22;1910;49.042;9.028;2022-09-09T08:30:11;27.70;94.70
3790;DHT22;1910;49.042;9.028;2022-09-09T08:35:03;28.10;92.80
3790;DHT22;1910;49.042;9.028;2022-09-09T08:42:34;29.60;88.10
3790;DHT22;1910;49.042;9.028;2022-09-09T08:50:29;25.60;93.40
3790;DHT22;1910;49.042;9.028;2022-09-09T08:55:49;28.40;91.80
3790;DHT22;1910;49.042;9.028;2022-09-09T08:58:25;30.60;86.80
3790;DHT22;1910;49.042;9.028;2022-09-09T09:03:56;31.10;82.00
3790;DHT22;1910;49.042;9.028;2022-09-09T09:11:55;27.20;77.50
3790;DHT22;1910;49.042;9.028;2022-09-09T09:14:25;28.70;80.00
3790;DHT22;1910;49.042;9.028;2022-09-09T09:19:23;25.80;91.50
3790;DHT22;1910;49.042;9.028;2022-09-09T09:22:29;22.40;98.50
3790;DHT22;1910;49.042;9.028;2022-09-09T09:25:17;22.00;99.90
3790;DHT22;1910;49.042;9.028;2022-09-09T09:27:58;21.50;99.90
3790;DHT22;1910;49.042;9.028;2022-09-09T09:30:36;21.00;99.90
3790;DHT22;1910;49.042;9.028;2022-09-09T09:33:15;20.60;99.90
3790;DHT22;1910;49.042;9.028;2022-09-09T09:35:41;20.40;99.90
3790;DHT22;1910;49.042;9.028;2022-09-09T09:38:21;20.20;99.90
3790;DHT22;1910;49.042;9.028;2022-09-09T09:40:52;20.20;99.90
3790;DHT22;1910;49.042;9.028;2022-09-09T09:43:30;20.60;99.90
3790;DHT22;1910;49.042;9.028;2022-09-09T09:45:57;20.30;99.90
3790;DHT22;1910;49.042;9.028;2022-09-09T09:48:26;19.90;99.90
3790;DHT22;1910;49.042;9.028;2022-09-09T09:50:56;20.80;99.90
3790;DHT22;1910;49.042;9.028;2022-09-09T09:53:28;20.80;99.90
3790;DHT22;1910;49.042;9.028;2022-09-09T09:55:59;22.10;99.90
3790;DHT22;1910;49.042;9.028;2022-09-09T09:58:27;22.50;99.90
3790;DHT22;1910;49.042;9.028;2022-09-09T10:00:55;22.60;99.90
3790;DHT22;1910;49.042;9.028;2022-09-09T10:03:30;22.00;99.90
3790;DHT22;1910;49.042;9.028;2022-09-09T10:05:56;22.10;99.90
3790;DHT22;1910;49.042;9.028;2022-09-09T10:08:23;21.10;99.90
3790;DHT22;1910;49.042;9.028;2022-09-09T10:11:25;20.60;99.90
3790;DHT22;1910;49.042;9.028;2022-09-09T10:19:13;20.00;99.90
3790;DHT22;1910;49.042;9.028;2022-09-09T10:22:22;19.90;99.90
3790;DHT22;1910;49.042;9.028;2022-09-09T10:31:08;20.60;99.90
3790;DHT22;1910;49.042;9.028;2022-09-09T10:33:55;21.40;99.90
3790;DHT22;1910;49.042;9.028;2022-09-09T10:36:25;22.30;99.90
3790;DHT22;1910;49.042;9.028;2022-09-09T10:42:03;22.40;99.90
3790;DHT22;1910;49.042;9.028;2022-09-09T10:47:45;21.40;99.90
3790;DHT22;1910;49.042;9.028;2022-09-09T10:50:42;21.70;99.90
3790;DHT22;1910;49.042;9.028;2022-09-09T10:53:36;22.10;99.90
3790;DHT22;1910;49.042;9.028;2022-09-09T10:56:09;22.40;99.90
3790;DHT22;1910;49.042;9.028;2022-09-09T10:58:49;22.50;99.90
3790;DHT22;1910;49.042;9.028;2022-09-09T11:01:23;22.70;99.90
3790;DHT22;1910;49.042;9.028;2022-09-09T11:03:56;23.20;99.90
3790;DHT22;1910;49.042;9.028;2022-09-09T11:06:28;23.40;99.90
3790;DHT22;1910;49.042;9.028;2022-09-09T11:08:57;23.30;99.90
3790;DHT22;1910;49.042;9.028;2022-09-09T11:11:34;24.00;99.90
3790;DHT22;1910;49.042;9.028;2022-09-09T11:14:09;24.40;98.80
3790;DHT22;1910;49.042;9.028;2022-09-09T11:17:03;23.30;98.00
3790;DHT22;1910;49.042;9.028;2022-09-09T11:19:42;22.60;99.90
3790;DHT22;1910;49.042;9.028;2022-09-09T11:25:21;22.50;97.70
3790;DHT22;1910;49.042;9.028;2022-09-09T11:36:23;22.00;99.90
3790;DHT22;1910;49.042;9.028;2022-09-09T11:38:52;22.10;99.10
3790;DHT22;1910;49.042;9.028;2022-09-09T11:41:22;22.40;99.90
3790;DHT22;1910;49.042;9.028;2022-09-09T11:43:52;22.50;99.90
3790;DHT22;1910;49.042;9.028;2022-09-09T11:46:23;22.40;99.90
3790;DHT22;1910;49.042;9.028;2022-09-09T11:49:04;21.80;98.40
3790;DHT22;1910;49.042;9.028;2022-09-09T11:51:32;21.80;98.60
3790;DHT22;1910;49.042;9.028;2022-09-09T11:54:01;21.30;98.80
3790;DHT22;1910;49.042;9.028;2022-09-09T11:56:29;21.40;99.30
3790;DHT22;1910;49.042;9.028;2022-09-09T11:59:06;21.20;99.60
3790;DHT22;1910;49.042;9.028;2022-09-09T12:01:56;20.50;99.90
3790;DHT22;1910;49.042;9.028;2022-09-09T12:07:03;20.10;99.90
3790;DHT22;1910;49.042;9.028;2022-09-09T12:12:33;20.30;99.90
3790;DHT22;1910;49.042;9.028;2022-09-09T12:20:16;22.00;99.90
3790;DHT22;1910;49.042;9.028;2022-09-09T12:36:53;24.20;95.90
3790;DHT22;1910;49.042;9.028;2022-09-09T12:39:36;24.50;94.40
3790;DHT22;1910;49.042;9.028;2022-09-09T12:42:02;24.30;92.80
3790;DHT22;1910;49.042;9.028;2022-09-09T12:44:29;23.00;93.80
3790;DHT22;1910;49.042;9.028;2022-09-09T12:46:59;23.40;95.20
3790;DHT22;1910;49.042;9.028;2022-09-09T12:49:39;23.60;94.80
3790;DHT22;1910;49.042;9.028;2022-09-09T12:52:13;23.40;95.40
3790;DHT22;1910;49.042;9.028;2022-09-09T12:54:45;23.70;96.60
3790;DHT22;1910;49.042;9.028;2022-09-09T12:57:17;23.60;95.60
3790;DHT22;1910;49.042;9.028;2022-09-09T12:59:44;23.40;95.40
3790;DHT22;1910;49.042;9.028;2022-09-09T13:02:19;23.40;95.70
3790;DHT22;1910;49.042;9.028;2022-09-09T13:04:45;23.00;95.80
3790;DHT22;1910;49.042;9.028;2022-09-09T13:07:12;23.00;96.60
3790;DHT22;1910;49.042;9.028;2022-09-09T13:09:39;22.70;96.20
3790;DHT22;1910;49.042;9.028;2022-09-09T13:12:06;23.20;97.40
3790;DHT22;1910;49.042;9.028;2022-09-09T13:14:36;23.30;96.90
3790;DHT22;1910;49.042;9.028;2022-09-09T13:17:04;23.20;97.40
3790;DHT22;1910;49.042;9.028;2022-09-09T13:19:35;24.90;98.50
3790;DHT22;1910;49.042;9.028;2022-09-09T13:22:12;22.70;97.60
3790;DHT22;1910;49.042;9.028;2022-09-09T13:24:38;22.70;97.30
3790;DHT22;1910;49.042;9.028;2022-09-09T13:27:26;22.70;97.10
3790;DHT22;1910;49.042;9.028;2022-09-09T13:29:53;22.50;97.90
3790;DHT22;1910;49.042;9.028;2022-09-09T13:32:23;22.70;98.60
3790;DHT22;1910;49.042;9.028;2022-09-09T13:35:22;23.40;97.80
3790;DHT22;1910;49.042;9.028;2022-09-09T13:37:48;23.50;97.90
3790;DHT22;1910;49.042;9.028;2022-09-09T13:40:19;23.60;96.90
3790;DHT22;1910;49.042;9.028;2022-09-09T13:42:47;22.90;96.20
3790;DHT22;1910;49.042;9.028;2022-09-09T13:45:21;22.90;96.60
3790;DHT22;1910;49.042;9.028;2022-09-09T13:47:49;22.90;96.30
3790;DHT22;1910;49.042;9.028;2022-09-09T13:50:30;22.40;95.40
3790;DHT22;1910;49.042;9.028;2022-09-09T13:52:57;21.90;96.50
3790;DHT22;1910;49.042;9.028;2022-09-09T13:55:25;21.60;97.70
3790;DHT22;1910;49.042;9.028;2022-09-09T13:58:02;21.80;98.10
3790;DHT22;1910;49.042;9.028;2022-09-09T14:00:34;22.00;98.10
3790;DHT22;1910;49.042;9.028;2022-09-09T14:03:00;22.60;97.90
3790;DHT22;1910;49.042;9.028;2022-09-09T14:05:28;22.50;97.00
3790;DHT22;1910;49.042;9.028;2022-09-09T14:07:55;22.60;94.60
3790;DHT22;1910;49.042;9.028;2022-09-09T14:10:20;22.70;93.10
3790;DHT22;1910;49.042;9.028;2022-09-09T14:12:47;23.00;92.40
3790;DHT22;1910;49.042;9.028;2022-09-09T14:15:13;23.10;92.60
3790;DHT22;1910;49.042;9.028;2022-09-09T14:17:39;22.70;93.00
3790;DHT22;1910;49.042;9.028;2022-09-09T14:20:06;22.30;93.70
3790;DHT22;1910;49.042;9.028;2022-09-09T14:22:33;22.30;94.00
3790;DHT22;1910;49.042;9.028;2022-09-09T14:24:58;21.50;95.10
3790;DHT22;1910;49.042;9.028;2022-09-09T14:27:24;21.40;95.40
3790;DHT22;1910;49.042;9.028;2022-09-09T14:32:19;21.50;96.40
3790;DHT22;1910;49.042;9.028;2022-09-09T14:34:45;21.90;96.20
3790;DHT22;1910;49.042;9.028;2022-09-09T14:42:02;22.00;96.60
3790;DHT22;1910;49.042;9.028;2022-09-09T14:44:28;22.10;96.60
3790;DHT22;1910;49.042;9.028;2022-09-09T14:49:20;21.80;97.40
3790;DHT22;1910;49.042;9.028;2022-09-09T14:51:45;21.60;99.20
3790;DHT22;1910;49.042;9.028;2022-09-09T14:54:10;21.30;99.90
3790;DHT22;1910;49.042;9.028;2022-09-09T14:56:36;21.20;99.90
3790;DHT22;1910;49.042;9.028;2022-09-09T14:59:03;21.30;99.90
3790;DHT22;1910;49.042;9.028;2022-09-09T15:01:30;21.50;99.90
3790;DHT22;1910;49.042;9.028;2022-09-09T15:03:58;21.70;99.90
3790;DHT22;1910;49.042;9.028;2022-09-09T15:06:25;21.80;99.90
3790;DHT22;1910;49.042;9.028;2022-09-09T15:08:52;22.40;99.90
3790;DHT22;1910;49.042;9.028;2022-09-09T15:11:19;22.30;99.90
3790;DHT22;1910;49.042;9.028;2022-09-09T15:13:45;22.30;99.10
3790;DHT22;1910;49.042;9.028;2022-09-09T15:16:19;22.10;96.70
3790;DHT22;1910;49.042;9.028;2022-09-09T15:18:46;21.80;97.60
3790;DHT22;1910;49.042;9.028;2022-09-09T15:21:13;22.10;96.30
3790;DHT22;1910;49.042;9.028;2022-09-09T15:23:39;22.20;94.50
3790;DHT22;1910;49.042;9.028;2022-09-09T15:28:35;21.50;94.30
3790;DHT22;1910;49.042;9.028;2022-09-09T15:31:05;21.60;94.90
3790;DHT22;1910;49.042;9.028;2022-09-09T15:33:32;21.60;95.70
3790;DHT22;1910;49.042;9.028;2022-09-09T15:35:58;21.60;95.20
3790;DHT22;1910;49.042;9.028;2022-09-09T15:40:54;21.40;94.80
3790;DHT22;1910;49.042;9.028;2022-09-09T15:43:23;21.10;95.40
3790;DHT22;1910;49.042;9.028;2022-09-09T15:45:54;21.00;96.20
3790;DHT22;1910;49.042;9.028;2022-09-09T15:48:30;20.90;97.30
3790;DHT22;1910;49.042;9.028;2022-09-09T15:51:03;20.70;98.50
3790;DHT22;1910;49.042;9.028;2022-09-09T15:53:29;20.50;99.40
3790;DHT22;1910;49.042;9.028;2022-09-09T15:55:55;20.40;99.90
3790;DHT22;1910;49.042;9.028;2022-09-09T15:58:21;20.20;99.90
3790;DHT22;1910;49.042;9.028;2022-09-09T16:00:46;20.00;99.90
3790;DHT22;1910;49.042;9.028;2022-09-09T16:03:13;19.90;99.90
3790;DHT22;1910;49.042;9.028;2022-09-09T16:05:38;19.80;99.90
3790;DHT22;1910;49.042;9.028;2022-09-09T16:08:04;19.70;99.90
3790;DHT22;1910;49.042;9.028;2022-09-09T16:10:29;19.60;99.90
3790;DHT22;1910;49.042;9.028;2022-09-09T16:12:56;19.60;99.90
3790;DHT22;1910;49.042;9.028;2022-09-09T16:15:21;19.60;99.90
3790;DHT22;1910;49.042;9.028;2022-09-09T16:17:48;19.50;99.90
3790;DHT22;1910;49.042;9.028;2022-09-09T16:20:14;19.20;99.90
3790;DHT22;1910;49.042;9.028;2022-09-09T16:25:06;18.70;99.90
3790;DHT22;1910;49.042;9.028;2022-09-09T16:27:31;18.70;99.90
3790;DHT22;1910;49.042;9.028;2022-09-09T16:29:57;18.50;99.90
3790;DHT22;1910;49.042;9.028;2022-09-09T16:32:23;18.30;99.90
3790;DHT22;1910;49.042;9.028;2022-09-09T16:37:14;18.10;99.90
3790;DHT22;1910;49.042;9.028;2022-09-09T16:39:40;17.80;99.90
3790;DHT22;1910;49.042;9.028;2022-09-09T16:42:13;17.80;99.90
3790;DHT22;1910;49.042;9.028;2022-09-09T16:44:38;17.50;99.90
3790;DHT22;1910;49.042;9.028;2022-09-09T16:47:04;17.50;99.90
3790;DHT22;1910;49.042;9.028;2022-09-09T16:49:30;17.40;99.90
3790;DHT22;1910;49.042;9.028;2022-09-09T16:51:57;17.50;99.90
3790;DHT22;1910;49.042;9.028;2022-09-09T16:56:52;17.30;99.90
3790;DHT22;1910;49.042;9.028;2022-09-09T16:59:19;17.20;99.90
3790;DHT22;1910;49.042;9.028;2022-09-09T17:01:47;17.30;99.90
3790;DHT22;1910;49.042;9.028;2022-09-09T17:04:21;17.30;99.90
3790;DHT22;1910;49.042;9.028;2022-09-09T17:06:50;17.30;99.90
3790;DHT22;1910;49.042;9.028;2022-09-09T17:09:17;17.30;99.90
3790;DHT22;1910;49.042;9.028;2022-09-09T17:11:43;17.30;99.90
3790;DHT22;1910;49.042;9.028;2022-09-09T17:14:14;17.30;99.90
3790;DHT22;1910;49.042;9.028;2022-09-09T17:16:40;17.30;99.90
3790;DHT22;1910;49.042;9.028;2022-09-09T17:19:06;17.10;99.90
3790;DHT22;1910;49.042;9.028;2022-09-09T17:21:34;17.20;99.90
3790;DHT22;1910;49.042;9.028;2022-09-09T17:24:00;17.10;99.90
3790;DHT22;1910;49.042;9.028;2022-09-09T17:26:29;16.90;99.90
3790;DHT22;1910;49.042;9.028;2022-09-09T17:28:55;16.80;99.90
3790;DHT22;1910;49.042;9.028;2022-09-09T17:31:24;16.70;99.90
3790;DHT22;1910;49.042;9.028;2022-09-09T17:33:51;16.70;99.90
3790;DHT22;1910;49.042;9.028;2022-09-09T17:36:44;16.60;99.90
3790;DHT22;1910;49.042;9.028;2022-09-09T17:39:09;16.60;99.90
3790;DHT22;1910;49.042;9.028;2022-09-09T17:41:37;17.80;99.90
3790;DHT22;1910;49.042;9.028;2022-09-09T17:46:38;16.40;99.90
3790;DHT22;1910;49.042;9.028;2022-09-09T17:49:08;17.10;99.90
3790;DHT22;1910;49.042;9.028;2022-09-09T17:51:35;16.30;99.90
3790;DHT22;1910;49.042;9.028;2022-09-09T17:54:03;16.30;99.90
3790;DHT22;1910;49.042;9.028;2022-09-09T17:56:30;16.20;99.90
3790;DHT22;1910;49.042;9.028;2022-09-09T17:58:58;16.20;99.90
3790;DHT22;1910;49.042;9.028;2022-09-09T18:01:29;16.20;99.90
3790;DHT22;1910;49.042;9.028;2022-09-09T18:03:56;16.10;99.90
3790;DHT22;1910;49.042;9.028;2022-09-09T18:06:24;16.10;99.90
3790;DHT22;1910;49.042;9.028;2022-09-09T18:08:54;16.00;99.90
3790;DHT22;1910;49.042;9.028;2022-09-09T18:11:21;16.00;99.90
3790;DHT22;1910;49.042;9.028;2022-09-09T18:13:51;16.00;99.90
3790;DHT22;1910;49.042;9.028;2022-09-09T18:16:18;16.00;99.90
3790;DHT22;1910;49.042;9.028;2022-09-09T18:18:45;16.00;99.90
3790;DHT22;1910;49.042;9.028;2022-09-09T18:21:11;16.00;99.90
3790;DHT22;1910;49.042;9.028;2022-09-09T18:23:38;16.00;99.90
3790;DHT22;1910;49.042;9.028;2022-09-09T18:26:11;16.00;99.90
3790;DHT22;1910;49.042;9.028;2022-09-09T18:28:41;16.00;99.90
3790;DHT22;1910;49.042;9.028;2022-09-09T18:31:12;16.00;99.90
3790;DHT22;1910;49.042;9.028;2022-09-09T18:33:40;16.00;99.90
3790;DHT22;1910;49.042;9.028;2022-09-09T18:36:13;15.90;99.90
3790;DHT22;1910;49.042;9.028;2022-09-09T18:38:40;15.90;99.90
3790;DHT22;1910;49.042;9.028;2022-09-09T18:41:24;15.80;99.90
3790;DHT22;1910;49.042;9.028;2022-09-09T18:43:53;15.80;99.90
3790;DHT22;1910;49.042;9.028;2022-09-09T18:46:21;15.80;99.90
3790;DHT22;1910;49.042;9.028;2022-09-09T18:48:47;15.80;99.90
3790;DHT22;1910;49.042;9.028;2022-09-09T18:51:16;15.70;99.90
3790;DHT22;1910;49.042;9.028;2022-09-09T18:53:44;15.70;99.90
3790;DHT22;1910;49.042;9.028;2022-09-09T18:56:13;17.70;99.90
3790;DHT22;1910;49.042;9.028;2022-09-09T18:58:39;15.60;99.90
3790;DHT22;1910;49.042;9.028;2022-09-09T19:01:11;15.50;99.90
3790;DHT22;1910;49.042;9.028;2022-09-09T19:03:38;15.50;99.90
3790;DHT22;1910;49.042;9.028;2022-09-09T19:06:15;15.50;99.90
3790;DHT22;1910;49.042;9.028;2022-09-09T19:08:43;15.50;99.90
3790;DHT22;1910;49.042;9.028;2022-09-09T19:11:11;15.40;99.90
3790;DHT22;1910;49.042;9.028;2022-09-09T19:13:37;15.40;99.90
3790;DHT22;1910;49.042;9.028;2022-09-09T19:16:08;15.40;99.90
3790;DHT22;1910;49.042;9.028;2022-09-09T19:18:34;15.30;99.90
3790;DHT22;1910;49.042;9.028;2022-09-09T19:21:20;15.30;99.90
3790;DHT22;1910;49.042;9.028;2022-09-09T19:23:52;15.20;99.90
3790;DHT22;1910;49.042;9.028;2022-09-09T19:26:20;15.20;99.90
3790;DHT22;1910;49.042;9.028;2022-09-09T19:31:15;15.20;99.90
3790;DHT22;1910;49.042;9.028;2022-09-09T19:33:42;15.30;99.90
3790;DHT22;1910;49.042;9.028;2022-09-09T19:36:09;15.40;99.90
3790;DHT22;1910;49.042;9.028;2022-09-09T19:38:35;15.40;99.90
3790;DHT22;1910;49.042;9.028;2022-09-09T19:41:06;15.50;99.90
3790;DHT22;1910;49.042;9.028;2022-09-09T19:43:32;15.60;99.90
3790;DHT22;1910;49.042;9.028;2022-09-09T19:46:01;15.60;99.90
3790;DHT22;1910;49.042;9.028;2022-09-09T19:48:30;15.60;99.90
3790;DHT22;1910;49.042;9.028;2022-09-09T19:51:04;15.60;99.90
3790;DHT22;1910;49.042;9.028;2022-09-09T19:53:34;15.50;99.90
3790;DHT22;1910;49.042;9.028;2022-09-09T19:56:00;15.50;99.90
3790;DHT22;1910;49.042;9.028;2022-09-09T19:58:28;15.40;99.90
3790;DHT22;1910;49.042;9.028;2022-09-09T20:05:46;15.40;99.90
3790;DHT22;1910;49.042;9.028;2022-09-09T20:10:39;15.40;99.90
3790;DHT22;1910;49.042;9.028;2022-09-09T20:13:05;15.40;99.90
3790;DHT22;1910;49.042;9.028;2022-09-09T20:15:30;15.50;99.90
3790;DHT22;1910;49.042;9.028;2022-09-09T20:17:55;15.50;99.90
3790;DHT22;1910;49.042;9.028;2022-09-09T20:22:47;15.40;99.90
3790;DHT22;1910;49.042;9.028;2022-09-09T20:25:13;15.40;99.90
3790;DHT22;1910;49.042;9.028;2022-09-09T20:30:06;15.30;99.90
3790;DHT22;1910;49.042;9.028;2022-09-09T20:32:32;15.30;99.90
3790;DHT22;1910;49.042;9.028;2022-09-09T20:34:57;15.40;99.90